createdAt,value
2023-03-05T00:00:55.255Z,13.77
2023-03-05T00:05:12.548Z,15.63
2023-03-05T00:09:29.622Z,14.10
2023-03-05T00:13:47.172Z,14.90
2023-03-05T00:18:04.361Z,18.03
2023-03-05T00:22:21.466Z,14.85
2023-03-05T00:26:39.491Z,15.75
2023-03-05T00:31:01.241Z,14.95
2023-03-05T00:35:18.383Z,16.50
2023-03-05T00:39:35.533Z,11.13
2023-03-05T00:43:52.661Z,14.95
2023-03-05T00:48:10.140Z,17.98
2023-03-05T00:52:27.386Z,16.03
2023-03-05T00:56:44.983Z,19.45
2023-03-05T01:01:02.747Z,16.90
2023-03-05T01:05:21.032Z,20.08
2023-03-05T01:09:38.233Z,15.93
2023-03-05T01:13:55.445Z,14.32
2023-03-05T01:18:13.642Z,12.88
2023-03-05T01:22:30.829Z,12.57
2023-03-05T01:26:49.328Z,11.43
2023-03-05T01:31:11.460Z,16.60
2023-03-05T01:35:29.352Z,16.42
2023-03-05T01:39:46.729Z,15.23
2023-03-05T01:44:04.094Z,10.65
2023-03-05T01:48:21.430Z,13.93
2023-03-05T01:52:43.427Z,12.75
2023-03-05T01:57:06.468Z,14.43
2023-03-05T02:01:23.851Z,15.93
2023-03-05T02:05:44.349Z,14.90
2023-03-05T02:10:01.739Z,20.92
2023-03-05T02:14:20.536Z,19.67
2023-03-05T02:18:37.631Z,15.48
2023-03-05T02:22:54.824Z,16.10
2023-03-05T02:27:14.064Z,10.85
2023-03-05T02:31:31.304Z,14.57
2023-03-05T02:35:48.539Z,14.63
2023-03-05T02:40:06.439Z,14.95
2023-03-05T02:44:23.619Z,9.75
2023-03-05T02:48:40.767Z,14.68
2023-03-05T02:52:57.890Z,9.20
2023-03-05T02:57:15.164Z,14.38
2023-03-05T03:01:32.330Z,9.57
2023-03-05T03:05:49.433Z,14.32
2023-03-05T03:10:07.231Z,9.40
2023-03-05T03:14:24.300Z,5.32
2023-03-05T03:18:41.758Z,12.15
2023-03-05T03:22:58.885Z,10.80
2023-03-05T03:27:16.016Z,6.95
2023-03-05T03:31:33.112Z,8.95
2023-03-05T03:35:50.350Z,7.97
2023-03-05T03:40:08.620Z,7.60
2023-03-05T03:44:25.769Z,10.45
2023-03-05T03:48:42.854Z,8.85
2023-03-05T03:53:00.118Z,6.60
2023-03-05T03:57:17.200Z,6.30
2023-03-05T04:01:34.331Z,6.65
2023-03-05T04:05:51.538Z,7.88
2023-03-05T04:10:09.272Z,5.55
2023-03-05T04:14:27.281Z,6.05
2023-03-05T04:18:44.613Z,6.47
2023-03-05T04:23:01.853Z,6.60
2023-03-05T04:27:19.033Z,6.00
2023-03-05T04:31:36.292Z,8.38
2023-03-05T04:35:53.538Z,7.90
2023-03-05T04:40:11.350Z,8.95
2023-03-05T04:44:28.526Z,4.72
2023-03-05T04:48:45.589Z,4.47
2023-03-05T04:53:03.696Z,7.95
2023-03-05T05:01:40.196Z,3.50
2023-03-05T05:05:59.034Z,5.30
2023-03-05T05:10:17.073Z,3.33
2023-03-05T05:14:34.662Z,4.88
2023-03-05T05:18:51.755Z,5.87
2023-03-05T05:23:08.867Z,7.35
2023-03-05T05:27:25.958Z,8.80
2023-03-05T05:31:43.308Z,4.63
2023-03-05T05:36:03.793Z,3.33
2023-03-05T05:40:20.998Z,3.47
2023-03-05T05:44:38.102Z,5.63
2023-03-05T05:48:55.214Z,5.22
2023-03-05T05:53:12.384Z,3.22
2023-03-05T05:57:29.505Z,6.05
2023-03-05T06:01:46.774Z,5.18
2023-03-05T06:06:07.754Z,5.40
2023-03-05T06:10:26.023Z,5.20
2023-03-05T06:14:43.093Z,2.70
2023-03-05T06:19:04.466Z,8.98
2023-03-05T06:23:21.977Z,10.07
2023-03-05T06:27:39.262Z,5.57
2023-03-05T06:31:56.385Z,3.20
2023-03-05T06:36:16.088Z,6.05
2023-03-05T06:40:33.244Z,3.63
2023-03-05T06:44:50.379Z,5.22
2023-03-05T06:49:09.453Z,6.75
2023-03-05T06:53:27.423Z,5.10
2023-03-05T06:57:44.864Z,5.90
2023-03-05T07:02:02.022Z,7.80
2023-03-05T07:06:19.752Z,6.65
2023-03-05T07:10:41.753Z,6.32
2023-03-05T07:14:58.896Z,6.03
2023-03-05T07:19:16.216Z,4.05
2023-03-05T07:23:34.324Z,5.15
2023-03-05T07:27:51.586Z,5.18
2023-03-05T07:32:08.851Z,3.63
2023-03-05T07:36:26.659Z,3.72
2023-03-05T07:40:43.792Z,5.30
2023-03-05T07:45:00.904Z,3.63
2023-03-05T07:49:18.082Z,2.78
2023-03-05T07:53:35.711Z,5.72
2023-03-05T07:57:53.137Z,5.13
2023-03-05T08:02:11.876Z,2.95
2023-03-05T08:06:29.422Z,7.70
2023-03-05T08:10:46.581Z,2.73
2023-03-05T08:15:03.822Z,4.60
2023-03-05T08:19:21.502Z,1.55
2023-03-05T08:23:38.608Z,5.17
2023-03-05T08:27:55.726Z,3.00
2023-03-05T08:32:12.871Z,4.32
2023-03-05T08:36:34.339Z,4.88
2023-03-05T08:40:51.902Z,5.47
2023-03-05T08:45:09.665Z,3.97
2023-03-05T08:49:26.714Z,5.97
2023-03-05T08:53:44.968Z,4.88
2023-03-05T08:58:02.075Z,4.55
2023-03-05T09:02:19.222Z,8.75
2023-03-05T09:06:40.293Z,4.63
2023-03-05T09:10:57.817Z,4.82
2023-03-05T09:15:15.042Z,4.50
2023-03-05T09:19:32.294Z,6.00
2023-03-05T09:23:49.434Z,5.25
2023-03-05T09:28:06.763Z,5.22
2023-03-05T09:32:23.865Z,4.38
2023-03-05T09:36:41.032Z,4.60
2023-03-05T09:41:07.574Z,7.82
2023-03-05T09:45:58.754Z,20.33
2023-03-05T09:50:33.715Z,44.53
2023-03-05T09:54:57.037Z,13.80
2023-03-05T09:59:20.477Z,11.52
2023-03-05T10:03:52.307Z,7.15
2023-03-05T10:08:11.367Z,10.07
2023-03-05T10:12:44.356Z,9.07
2023-03-05T10:17:23.106Z,9.40
2023-03-05T10:21:42.269Z,8.88
2023-03-05T10:26:21.721Z,9.80
2023-03-05T10:31:03.677Z,9.27
2023-03-05T10:35:35.654Z,8.13
2023-03-05T10:40:01.480Z,6.35
2023-03-05T10:44:29.545Z,6.03
2023-03-05T10:48:54.501Z,4.43
2023-03-05T10:53:42.078Z,4.82
2023-03-05T10:57:59.174Z,5.28
2023-03-05T11:02:17.308Z,4.63
2023-03-05T11:06:42.998Z,6.30
2023-03-05T11:11:18.609Z,7.63
2023-03-05T11:15:35.780Z,4.30
2023-03-05T11:19:52.939Z,7.30
2023-03-05T11:24:18.969Z,7.70
2023-03-05T11:28:57.584Z,5.90
2023-03-05T11:33:19.375Z,3.22
2023-03-05T11:37:36.497Z,3.75
2023-03-05T11:41:59.744Z,9.38
2023-03-05T11:46:18.830Z,12.27
2023-03-05T11:50:40.138Z,7.30
2023-03-05T11:55:13.189Z,5.63
2023-03-05T11:59:35.645Z,5.28
2023-03-05T12:03:53.251Z,5.57
2023-03-05T12:08:19.702Z,5.77
2023-03-05T12:12:57.580Z,5.13
2023-03-05T12:17:29.157Z,5.10
2023-03-05T12:21:50.966Z,8.77
2023-03-05T12:26:08.114Z,8.93
2023-03-05T12:30:34.073Z,5.10
2023-03-05T12:35:15.559Z,4.10
2023-03-05T12:39:45.129Z,7.40
2023-03-05T12:44:05.034Z,5.38
2023-03-05T12:48:22.111Z,11.32
2023-03-05T12:52:44.790Z,10.88
2023-03-05T12:57:14.641Z,8.82
2023-03-05T13:01:45.891Z,6.07
2023-03-05T13:06:08.048Z,5.35
2023-03-05T13:10:28.156Z,6.90
2023-03-05T13:14:47.211Z,3.50
2023-03-05T13:19:14.970Z,3.08
2023-03-05T13:23:33.869Z,2.47
2023-03-05T13:27:51.024Z,6.93
2023-03-05T13:32:32.408Z,8.55
2023-03-05T13:36:55.794Z,9.18
2023-03-05T13:41:15.990Z,7.88
2023-03-05T13:45:33.119Z,11.40
2023-03-05T13:50:04.810Z,6.90
2023-03-05T13:54:23.465Z,4.40
2023-03-05T13:58:48.026Z,5.78
2023-03-05T14:03:17.635Z,3.08
2023-03-05T14:07:42.015Z,5.28
2023-03-05T14:12:07.170Z,6.70
2023-03-05T14:16:29.819Z,10.27
2023-03-05T14:21:15.106Z,4.88
2023-03-05T14:25:40.272Z,3.33
2023-03-05T14:29:57.783Z,4.82
2023-03-05T14:34:22.287Z,4.07
2023-03-05T14:38:42.825Z,4.88
2023-03-05T14:43:02.212Z,4.80
2023-03-05T14:47:19.530Z,3.67
2023-03-05T14:51:42.537Z,7.35
2023-03-05T14:55:59.732Z,9.73
2023-03-05T15:00:18.445Z,7.00
2023-03-05T15:04:35.766Z,6.80
2023-03-05T15:08:52.936Z,9.77
2023-03-05T15:13:11.874Z,9.52
2023-03-05T15:17:33.406Z,5.07
2023-03-05T15:21:50.572Z,8.38
2023-03-05T15:26:09.536Z,4.95
2023-03-05T15:30:35.713Z,4.50
2023-03-05T15:34:53.004Z,12.35
2023-03-05T15:39:11.839Z,11.70
2023-03-05T15:43:31.692Z,10.30
2023-03-05T15:47:50.857Z,9.82
2023-03-05T15:52:08.147Z,6.88
2023-03-05T15:56:25.428Z,5.65
2023-03-05T16:00:43.199Z,4.93
2023-03-05T16:05:00.465Z,4.25
2023-03-05T16:09:20.580Z,6.88
2023-03-05T16:13:37.861Z,4.47
2023-03-05T16:17:56.933Z,7.45
2023-03-05T16:22:14.325Z,4.78
2023-03-05T16:26:34.363Z,7.77
2023-03-05T16:30:55.846Z,9.65
2023-03-05T16:35:13.561Z,5.85
2023-03-05T16:39:30.881Z,3.08
2023-03-05T16:43:48.224Z,3.80
2023-03-05T16:48:05.685Z,5.57
2023-03-05T16:52:23.058Z,3.60
2023-03-05T16:56:40.302Z,5.47
2023-03-05T17:00:57.787Z,5.63
2023-03-05T17:05:15.218Z,3.80
2023-03-05T17:09:32.559Z,3.20
2023-03-05T17:13:49.846Z,6.53
2023-03-05T17:18:07.944Z,6.97
2023-03-05T17:22:25.170Z,7.68
2023-03-05T17:26:42.339Z,8.57
2023-03-05T17:31:01.306Z,6.57
2023-03-05T17:35:21.753Z,7.38
2023-03-05T17:39:39.865Z,6.35
2023-03-05T17:43:57.513Z,7.85
2023-03-05T17:48:16.020Z,5.72
2023-03-05T17:52:34.374Z,5.93
2023-03-05T17:56:55.170Z,7.47
2023-03-05T18:01:12.718Z,7.53
2023-03-05T18:05:30.286Z,19.63
2023-03-05T18:09:47.644Z,5.80
2023-03-05T18:14:05.091Z,7.32
2023-03-05T18:18:22.378Z,10.27
2023-03-05T18:22:39.662Z,10.07
2023-03-05T18:26:56.905Z,7.95
2023-03-05T18:31:14.347Z,6.10
2023-03-05T18:35:33.430Z,7.30
2023-03-05T18:39:50.814Z,8.63
2023-03-05T18:44:08.866Z,5.85
2023-03-05T18:48:26.322Z,6.32
2023-03-05T18:52:44.570Z,7.27
2023-03-05T18:57:01.850Z,6.03
2023-03-05T19:01:19.800Z,7.97
2023-03-05T19:05:38.507Z,6.85
2023-03-05T19:09:59.609Z,8.90
2023-03-05T19:14:18.350Z,12.10
2023-03-05T19:18:42.961Z,12.68
2023-03-05T19:23:00.274Z,8.70
2023-03-05T19:27:18.714Z,8.02
2023-03-05T19:31:37.507Z,8.48
2023-03-05T19:35:54.909Z,6.20
2023-03-05T19:40:13.799Z,6.23
2023-03-05T19:44:31.802Z,5.97
2023-03-05T19:48:49.173Z,6.30
2023-03-05T19:53:06.474Z,6.55
2023-03-05T19:57:23.759Z,8.65
2023-03-05T20:01:41.153Z,10.60
2023-03-05T20:05:58.438Z,7.63
2023-03-05T20:10:15.888Z,7.43
2023-03-05T20:14:33.850Z,7.00
2023-03-05T20:18:54.709Z,8.93
2023-03-05T20:23:12.102Z,11.02
2023-03-05T20:27:29.521Z,7.83
2023-03-05T20:31:49.865Z,9.10
2023-03-05T20:36:08.570Z,7.65
2023-03-05T20:40:26.449Z,9.85
2023-03-05T20:44:44.917Z,10.25
2023-03-05T20:49:03.617Z,10.45
2023-03-05T20:53:21.667Z,7.72
2023-03-05T20:57:39.380Z,9.48
2023-03-05T21:01:56.659Z,7.35
2023-03-05T21:06:14.222Z,9.40
2023-03-05T21:10:31.858Z,9.70
2023-03-05T21:14:49.069Z,9.45
2023-03-05T21:19:06.165Z,8.98
2023-03-05T21:23:23.386Z,9.52
2023-03-05T21:27:40.538Z,10.13
2023-03-05T21:31:57.736Z,7.53
2023-03-05T21:36:18.510Z,8.48
2023-03-05T21:40:38.187Z,8.07
2023-03-05T21:44:55.274Z,8.60
2023-03-05T21:49:12.334Z,7.50
2023-03-05T21:53:29.437Z,8.25
2023-03-05T21:57:46.703Z,9.82
2023-03-05T22:02:03.803Z,9.10
2023-03-05T22:06:21.928Z,9.70
2023-03-05T22:10:40.994Z,10.73
2023-03-05T22:14:58.495Z,10.95
2023-03-05T22:19:15.647Z,11.20
2023-03-05T22:23:34.510Z,9.80
2023-03-05T22:27:51.620Z,9.43
2023-03-05T22:32:08.733Z,9.95
2023-03-05T22:36:25.873Z,13.50
2023-03-05T22:40:45.553Z,10.07
2023-03-05T22:45:02.682Z,11.02
2023-03-05T22:49:19.730Z,13.00
2023-03-05T22:53:37.237Z,10.85
2023-03-05T22:57:54.325Z,9.07
2023-03-05T23:02:11.451Z,13.30
2023-03-05T23:06:28.757Z,12.20
2023-03-05T23:10:45.860Z,11.55
2023-03-05T23:15:06.129Z,13.18
2023-03-05T23:19:23.187Z,12.27
2023-03-05T23:23:40.314Z,15.35
2023-03-05T23:27:58.063Z,15.07
2023-03-05T23:32:15.233Z,16.95
2023-03-05T23:36:32.389Z,15.95
2023-03-05T23:40:53.874Z,17.48
2023-03-05T23:45:13.350Z,15.82
2023-03-05T23:49:30.512Z,15.57
2023-03-05T23:53:48.744Z,18.38
